createdAt,value
2018-12-02T00:00:39.312Z,2.50
2018-12-02T00:01:38.533Z,2.60
2018-12-02T00:02:38.523Z,2.10
2018-12-02T00:03:38.647Z,2.10
2018-12-02T00:04:38.492Z,2.70
2018-12-02T00:05:38.480Z,3.40
2018-12-02T00:06:38.511Z,2.20
2018-12-02T00:07:38.454Z,2.90
2018-12-02T00:08:38.555Z,2.10
2018-12-02T00:09:38.434Z,2.80
2018-12-02T00:10:38.422Z,1.90
2018-12-02T00:11:38.460Z,2.60
2018-12-02T00:12:38.438Z,2.10
2018-12-02T00:13:38.410Z,2.80
2018-12-02T00:14:38.382Z,2.80
2018-12-02T00:15:38.390Z,2.50
2018-12-02T00:16:38.360Z,2.70
2018-12-02T00:17:38.377Z,2.80
2018-12-02T00:18:38.369Z,1.90
2018-12-02T00:19:38.323Z,2.40
2018-12-02T00:20:38.309Z,2.60
2018-12-02T00:21:38.328Z,3.40
2018-12-02T00:22:38.297Z,3.20
2018-12-02T00:23:38.309Z,2.20
2018-12-02T00:24:38.262Z,2.30
2018-12-02T00:25:38.263Z,2.30
2018-12-02T00:26:38.249Z,3.50
2018-12-02T00:27:38.237Z,2.70
2018-12-02T00:28:38.275Z,2.30
2018-12-02T00:29:38.217Z,3.00
2018-12-02T00:30:38.210Z,2.90
2018-12-02T00:31:38.196Z,2.10
2018-12-02T00:32:38.183Z,1.80
2018-12-02T00:33:38.169Z,2.00
2018-12-02T00:34:38.222Z,5.10
2018-12-02T00:35:38.147Z,1.90
2018-12-02T00:36:38.131Z,3.30
2018-12-02T00:37:38.312Z,2.10
2018-12-02T00:38:38.122Z,1.70
2018-12-02T00:39:38.113Z,2.40
2018-12-02T00:40:38.131Z,2.20
2018-12-02T00:41:38.243Z,1.90
2018-12-02T00:42:38.070Z,2.40
2018-12-02T00:43:38.057Z,2.70
2018-12-02T00:44:38.084Z,3.30
2018-12-02T00:45:38.042Z,2.10
2018-12-02T00:46:38.051Z,2.90
2018-12-02T00:47:38.025Z,2.10
2018-12-02T00:48:38.004Z,2.40
2018-12-02T00:49:38.006Z,2.30
2018-12-02T00:50:38.009Z,2.90
2018-12-02T00:51:37.975Z,1.90
2018-12-02T00:52:37.972Z,2.30
2018-12-02T00:53:37.949Z,2.70
2018-12-02T00:54:37.939Z,4.30
2018-12-02T00:55:37.946Z,3.00
2018-12-02T00:56:37.938Z,2.20
2018-12-02T00:57:37.908Z,1.60
2018-12-02T00:58:37.902Z,2.70
2018-12-02T00:59:37.880Z,1.60
2018-12-02T01:00:37.883Z,2.40
2018-12-02T01:01:37.871Z,1.90
2018-12-02T01:02:37.863Z,2.10
2018-12-02T01:03:37.846Z,3.30
2018-12-02T01:04:37.846Z,1.90
2018-12-02T01:05:37.843Z,2.70
2018-12-02T01:06:37.805Z,3.20
2018-12-02T01:07:37.840Z,2.60
2018-12-02T01:08:37.827Z,3.10
2018-12-02T01:09:37.844Z,2.40
2018-12-02T01:10:37.770Z,2.20
2018-12-02T01:11:37.755Z,1.80
2018-12-02T01:12:37.744Z,2.50
2018-12-02T01:13:37.762Z,2.30
2018-12-02T01:14:37.785Z,2.30
2018-12-02T01:15:37.707Z,1.70
2018-12-02T01:16:37.720Z,1.70
2018-12-02T01:17:37.892Z,2.60
2018-12-02T01:18:37.892Z,1.40
2018-12-02T01:19:37.678Z,1.20
2018-12-02T01:20:37.671Z,2.60
2018-12-02T01:21:37.642Z,2.80
2018-12-02T01:22:37.705Z,2.50
2018-12-02T01:23:39.249Z,2.10
2018-12-02T01:24:37.923Z,1.50
2018-12-02T01:25:37.611Z,1.60
2018-12-02T01:26:37.610Z,1.70
2018-12-02T01:27:37.617Z,1.80
2018-12-02T01:28:37.579Z,2.60
2018-12-02T01:29:37.604Z,1.50
2018-12-02T01:30:37.548Z,2.50
2018-12-02T01:31:37.561Z,1.30
2018-12-02T01:32:37.555Z,2.50
2018-12-02T01:33:37.512Z,1.70
2018-12-02T01:34:37.508Z,1.30
2018-12-02T01:35:37.521Z,1.60
2018-12-02T01:36:37.512Z,1.90
2018-12-02T01:37:37.473Z,1.90
2018-12-02T01:38:37.474Z,1.40
2018-12-02T01:39:37.451Z,1.10
2018-12-02T01:40:37.441Z,1.40
2018-12-02T01:41:37.530Z,2.00
2018-12-02T01:42:37.416Z,2.00
2018-12-02T01:43:37.406Z,1.60
2018-12-02T01:44:37.420Z,2.10
2018-12-02T01:45:37.413Z,1.20
2018-12-02T01:46:37.410Z,1.60
2018-12-02T01:47:37.364Z,1.20
2018-12-02T01:48:37.441Z,2.50
2018-12-02T01:49:37.354Z,2.00
2018-12-02T01:50:37.353Z,2.50
2018-12-02T01:51:37.314Z,1.60
2018-12-02T01:52:37.323Z,1.30
2018-12-02T01:53:37.309Z,1.40
2018-12-02T01:54:37.294Z,2.80
2018-12-02T01:55:37.319Z,1.80
2018-12-02T01:56:37.391Z,2.30
2018-12-02T01:57:37.253Z,1.60
2018-12-02T01:58:37.257Z,1.70
2018-12-02T01:59:37.235Z,1.80
2018-12-02T02:00:37.250Z,2.20
2018-12-02T02:01:37.213Z,1.30
2018-12-02T02:02:37.218Z,1.40
2018-12-02T02:03:37.220Z,1.10
2018-12-02T02:04:37.213Z,2.00
2018-12-02T02:05:37.172Z,1.90
2018-12-02T02:06:37.158Z,1.20
2018-12-02T02:07:37.177Z,1.50
2018-12-02T02:08:37.219Z,1.20
2018-12-02T02:09:37.118Z,1.60
2018-12-02T02:10:37.110Z,1.80
2018-12-02T02:11:37.128Z,1.20
2018-12-02T02:12:37.088Z,1.20
2018-12-02T02:13:37.120Z,1.50
2018-12-02T02:14:37.082Z,2.20
2018-12-02T02:15:37.057Z,1.10
2018-12-02T02:16:37.060Z,0.90
2018-12-02T02:17:37.030Z,1.10
2018-12-02T02:18:37.023Z,2.30
2018-12-02T02:19:37.054Z,1.80
2018-12-02T02:20:37.020Z,1.40
2018-12-02T02:21:37.006Z,1.00
2018-12-02T02:22:36.999Z,1.10
2018-12-02T02:23:36.960Z,1.20
2018-12-02T02:24:36.969Z,0.80
2018-12-02T02:25:36.950Z,0.90
2018-12-02T02:26:36.974Z,2.20
2018-12-02T02:27:36.969Z,0.80
2018-12-02T02:28:36.920Z,1.10
2018-12-02T02:29:36.902Z,0.80
2018-12-02T02:30:36.889Z,1.30
2018-12-02T02:31:36.879Z,1.60
2018-12-02T02:32:36.920Z,0.90
2018-12-02T02:33:36.881Z,1.20
2018-12-02T02:34:36.857Z,1.20
2018-12-02T02:35:36.830Z,1.20
2018-12-02T02:36:36.824Z,1.80
2018-12-02T02:37:36.819Z,1.80
2018-12-02T02:38:36.846Z,1.10
2018-12-02T02:39:36.794Z,1.00
2018-12-02T02:40:36.778Z,1.60
2018-12-02T02:41:36.768Z,0.80
2018-12-02T02:42:36.755Z,0.70
2018-12-02T02:43:36.762Z,0.70
2018-12-02T02:44:36.747Z,1.10
2018-12-02T02:45:36.729Z,0.70
2018-12-02T02:46:36.903Z,1.10
2018-12-02T02:47:36.720Z,1.90
2018-12-02T02:48:36.712Z,2.00
2018-12-02T02:49:36.736Z,0.90
2018-12-02T02:50:36.674Z,0.90
2018-12-02T02:51:36.662Z,1.10
2018-12-02T02:52:36.675Z,2.50
2018-12-02T02:53:36.657Z,1.20
2018-12-02T02:54:36.691Z,1.10
2018-12-02T02:55:36.619Z,0.70
2018-12-02T02:56:36.612Z,1.10
2018-12-02T02:57:36.607Z,1.00
2018-12-02T02:58:36.585Z,0.80
2018-12-02T02:59:36.590Z,1.10
2018-12-02T03:00:36.563Z,0.80
2018-12-02T03:01:36.670Z,1.10
2018-12-02T03:02:36.538Z,0.90
2018-12-02T03:03:36.527Z,0.90
2018-12-02T03:04:36.529Z,1.00
2018-12-02T03:05:36.502Z,1.00
2018-12-02T03:06:36.576Z,0.80
2018-12-02T03:07:36.495Z,0.70
2018-12-02T03:08:36.475Z,0.70
2018-12-02T03:09:36.499Z,0.70
2018-12-02T03:10:36.457Z,1.20
2018-12-02T03:11:36.439Z,0.90
2018-12-02T03:12:36.431Z,0.70
2018-12-02T03:13:36.439Z,0.70
2018-12-02T03:14:36.408Z,1.10
2018-12-02T03:15:36.415Z,0.80
2018-12-02T03:16:36.449Z,1.80
2018-12-02T03:17:36.382Z,0.80
2018-12-02T03:18:36.587Z,2.40
2018-12-02T03:19:36.381Z,1.50
2018-12-02T03:20:36.342Z,1.60
2018-12-02T03:21:36.336Z,1.30
2018-12-02T03:22:36.321Z,1.60
2018-12-02T03:23:36.316Z,2.20
2018-12-02T03:24:36.290Z,1.10
2018-12-02T03:25:36.302Z,1.30
2018-12-02T03:26:36.293Z,0.80
2018-12-02T03:27:36.270Z,0.70
2018-12-02T03:28:36.261Z,1.90
2018-12-02T03:29:36.247Z,1.40
2018-12-02T03:30:36.262Z,1.50
2018-12-02T03:31:36.267Z,0.80
2018-12-02T03:32:36.210Z,0.70
2018-12-02T03:33:36.199Z,0.90
2018-12-02T03:34:36.195Z,0.70
2018-12-02T03:35:36.196Z,1.30
2018-12-02T03:36:36.188Z,0.70
2018-12-02T03:37:36.151Z,1.90
2018-12-02T03:38:36.155Z,0.70
2018-12-02T03:39:36.136Z,0.70
2018-12-02T03:40:36.155Z,1.10
2018-12-02T03:41:36.128Z,0.70
2018-12-02T03:42:36.096Z,0.60
2018-12-02T03:43:36.091Z,1.70
2018-12-02T03:44:36.093Z,1.60
2018-12-02T03:45:36.109Z,0.70
2018-12-02T03:46:36.064Z,0.70
2018-12-02T03:47:36.054Z,1.20
2018-12-02T03:48:36.036Z,0.70
2018-12-02T03:49:36.034Z,0.60
2018-12-02T03:50:36.010Z,1.40
2018-12-02T03:51:36.070Z,1.60
2018-12-02T03:52:35.991Z,0.70
2018-12-02T03:53:36.028Z,1.20
2018-12-02T03:54:35.969Z,0.60
2018-12-02T03:55:35.970Z,0.70
2018-12-02T03:56:35.979Z,0.50
2018-12-02T03:57:35.960Z,0.60
2018-12-02T03:58:35.942Z,1.00
2018-12-02T03:59:35.916Z,0.60
2018-12-02T04:00:35.962Z,0.50
2018-12-02T04:01:35.886Z,0.50
2018-12-02T04:02:35.923Z,0.50
2018-12-02T04:03:35.930Z,0.50
2018-12-02T04:04:35.894Z,0.70
2018-12-02T04:05:35.845Z,0.90
2018-12-02T04:06:36.186Z,0.60
2018-12-02T04:07:35.833Z,0.80
2018-12-02T04:08:35.827Z,0.50
2018-12-02T04:09:35.811Z,0.50
2018-12-02T04:10:35.838Z,0.50
2018-12-02T04:11:35.777Z,0.50
2018-12-02T04:12:35.766Z,0.50
2018-12-02T04:13:35.827Z,0.50
2018-12-02T04:14:35.754Z,0.60
2018-12-02T04:15:35.734Z,0.70
2018-12-02T04:16:35.757Z,0.50
2018-12-02T04:17:35.769Z,0.60
2018-12-02T04:18:35.717Z,0.40
2018-12-02T04:19:35.701Z,0.50
2018-12-02T04:20:35.719Z,0.60
2018-12-02T04:21:35.694Z,0.70
2018-12-02T04:22:35.676Z,1.30
2018-12-02T04:23:35.649Z,0.50
2018-12-02T04:24:35.636Z,0.90
2018-12-02T04:25:35.641Z,0.60
2018-12-02T04:26:35.626Z,0.60
2018-12-02T04:27:35.655Z,0.80
2018-12-02T04:28:35.594Z,0.90
2018-12-02T04:29:35.580Z,0.70
2018-12-02T04:30:35.573Z,1.00
2018-12-02T04:31:35.573Z,1.40
2018-12-02T04:32:35.550Z,0.60
2018-12-02T04:33:35.603Z,1.70
2018-12-02T04:34:35.532Z,0.80
2018-12-02T04:35:35.516Z,1.00
2018-12-02T04:36:35.512Z,1.30
2018-12-02T04:37:35.493Z,1.10
2018-12-02T04:38:35.501Z,1.60
2018-12-02T04:39:35.495Z,1.70
2018-12-02T04:40:35.490Z,0.40
2018-12-02T04:41:35.473Z,0.80
2018-12-02T04:42:35.495Z,1.20
2018-12-02T04:43:35.468Z,2.30
2018-12-02T04:44:35.427Z,1.30
2018-12-02T04:45:35.490Z,0.70
2018-12-02T04:46:35.402Z,1.40
2018-12-02T04:47:35.385Z,1.10
2018-12-02T04:48:35.388Z,1.20
2018-12-02T04:49:35.384Z,0.90
2018-12-02T04:50:35.355Z,0.60
2018-12-02T04:51:35.344Z,0.60
2018-12-02T04:52:35.331Z,1.10
2018-12-02T04:53:35.331Z,1.10
2018-12-02T04:54:35.342Z,2.20
2018-12-02T04:55:35.295Z,0.50
2018-12-02T04:56:35.283Z,0.90
2018-12-02T04:57:35.279Z,0.60
2018-12-02T04:58:35.268Z,1.30
2018-12-02T04:59:35.288Z,1.00
2018-12-02T05:00:35.268Z,0.60
2018-12-02T05:01:35.242Z,1.10
2018-12-02T05:02:35.234Z,1.10
2018-12-02T05:03:35.231Z,1.20
2018-12-02T05:04:35.199Z,1.30
2018-12-02T05:05:35.227Z,0.60
2018-12-02T05:06:35.179Z,0.60
2018-12-02T05:07:35.219Z,0.60
2018-12-02T05:08:35.179Z,0.60
2018-12-02T05:09:35.174Z,0.60
2018-12-02T05:10:35.179Z,1.30
2018-12-02T05:11:35.218Z,1.00
2018-12-02T05:12:35.116Z,0.80
2018-12-02T05:13:35.161Z,0.50
2018-12-02T05:14:35.101Z,1.00
2018-12-02T05:15:35.089Z,0.70
2018-12-02T05:16:35.077Z,0.90
2018-12-02T05:17:35.173Z,1.00
2018-12-02T05:18:35.047Z,1.10
2018-12-02T05:19:35.059Z,0.60
2018-12-02T05:20:35.724Z,1.40
2018-12-02T05:21:35.060Z,1.10
2018-12-02T05:22:35.011Z,0.60
2018-12-02T05:23:34.990Z,1.40
2018-12-02T05:24:35.051Z,0.90
2018-12-02T05:25:34.970Z,2.00
2018-12-02T05:26:35.029Z,0.80
2018-12-02T05:27:34.950Z,1.00
2018-12-02T05:28:34.974Z,1.60
2018-12-02T05:29:35.427Z,0.60
2018-12-02T05:30:34.933Z,2.00
2018-12-02T05:31:34.907Z,1.40
2018-12-02T05:32:34.997Z,2.40
2018-12-02T05:33:34.882Z,0.60
2018-12-02T05:34:34.905Z,1.80
2018-12-02T05:35:34.861Z,1.40
2018-12-02T05:36:34.857Z,1.00
2018-12-02T05:37:35.046Z,0.70
2018-12-02T05:38:34.880Z,2.30
2018-12-02T05:39:34.823Z,0.90
2018-12-02T05:40:34.854Z,0.60
2018-12-02T05:41:34.851Z,0.60
2018-12-02T05:42:38.248Z,0.80
2018-12-02T05:43:34.777Z,1.00
2018-12-02T05:44:34.838Z,0.90
2018-12-02T05:45:34.767Z,1.00
2018-12-02T05:46:39.795Z,0.80
2018-12-02T05:47:34.750Z,1.60
2018-12-02T05:48:34.719Z,1.30
2018-12-02T05:49:34.710Z,0.80
2018-12-02T05:50:34.702Z,1.30
2018-12-02T05:51:34.703Z,0.70
2018-12-02T05:52:34.731Z,2.10
2018-12-02T05:53:34.752Z,0.50
2018-12-02T05:54:34.645Z,0.70
2018-12-02T05:55:34.712Z,1.10
2018-12-02T05:56:34.662Z,0.50
2018-12-02T05:57:34.675Z,0.50
2018-12-02T05:58:34.620Z,0.50
2018-12-02T05:59:34.622Z,1.00
2018-12-02T06:00:37.195Z,1.00
2018-12-02T06:01:34.623Z,0.90
2018-12-02T06:02:39.338Z,0.50
2018-12-02T06:03:35.573Z,0.60
2018-12-02T06:07:59.317Z,1.30
2018-12-02T06:08:58.822Z,0.90
2018-12-02T06:09:58.799Z,0.80
2018-12-02T06:12:23.776Z,0.60
2018-12-02T06:14:34.478Z,0.70
2018-12-02T06:15:34.085Z,0.60
2018-12-02T06:16:34.036Z,1.40
2018-12-02T06:17:34.200Z,2.70
2018-12-02T06:18:34.663Z,1.60
2018-12-02T06:19:33.983Z,0.60
2018-12-02T06:20:34.857Z,0.60
2018-12-02T06:21:33.863Z,0.70
2018-12-02T06:22:33.848Z,0.70
2018-12-02T06:23:33.837Z,1.00
2018-12-02T06:24:33.834Z,0.80
2018-12-02T06:25:33.824Z,1.80
2018-12-02T06:26:35.740Z,0.60
2018-12-02T06:27:33.794Z,2.00
2018-12-02T06:28:33.873Z,1.10
2018-12-02T06:29:33.785Z,0.50
2018-12-02T06:30:33.895Z,0.90
2018-12-02T06:32:50.946Z,2.30
2018-12-02T06:33:50.566Z,1.20
2018-12-02T06:34:50.758Z,1.10
2018-12-02T06:35:50.374Z,2.10
2018-12-02T06:36:50.390Z,0.60
2018-12-02T06:37:50.408Z,1.30
2018-12-02T06:38:50.334Z,1.00
2018-12-02T06:39:50.366Z,1.30
2018-12-02T06:40:50.316Z,1.40
2018-12-02T06:41:50.309Z,0.70
2018-12-02T06:42:50.329Z,0.70
2018-12-02T06:43:51.214Z,2.10
2018-12-02T06:44:50.271Z,1.20
2018-12-02T06:45:50.260Z,0.80
2018-12-02T06:46:50.291Z,0.90
2018-12-02T06:47:50.250Z,0.70
2018-12-02T06:48:50.248Z,1.20
2018-12-02T06:49:50.226Z,0.70
2018-12-02T06:50:50.694Z,0.60
2018-12-02T06:51:50.396Z,0.50
2018-12-02T06:52:50.267Z,1.90
2018-12-02T06:53:50.212Z,0.90
2018-12-02T06:54:50.163Z,0.50
2018-12-02T06:55:50.148Z,0.70
2018-12-02T06:56:50.208Z,0.70
2018-12-02T06:57:50.138Z,0.70
2018-12-02T06:58:50.129Z,0.80
2018-12-02T06:59:50.140Z,1.10
2018-12-02T07:00:50.115Z,0.70
2018-12-02T07:01:50.167Z,1.70
2018-12-02T07:02:50.681Z,0.70
2018-12-02T07:03:50.062Z,0.60
2018-12-02T07:04:50.100Z,0.50
2018-12-02T07:05:50.175Z,1.10
2018-12-02T07:06:50.067Z,0.90
2018-12-02T07:07:50.044Z,0.70
2018-12-02T07:08:50.095Z,0.70
2018-12-02T07:09:50.079Z,0.70
2018-12-02T07:10:49.989Z,0.60
2018-12-02T07:11:50.013Z,0.80
2018-12-02T07:12:49.988Z,0.60
2018-12-02T07:13:49.955Z,0.60
2018-12-02T07:14:50.013Z,1.20
2018-12-02T07:17:11.004Z,0.80
2018-12-02T07:19:22.288Z,0.80
2018-12-02T07:20:23.603Z,0.80
2018-12-02T07:21:21.571Z,1.40
2018-12-02T07:22:21.452Z,0.80
2018-12-02T07:23:21.405Z,0.90
2018-12-02T07:24:21.413Z,1.30
2018-12-02T07:25:21.358Z,1.20
2018-12-02T07:26:21.393Z,1.00
2018-12-02T07:27:21.334Z,0.60
2018-12-02T07:28:21.324Z,0.60
2018-12-02T07:29:21.384Z,0.80
2018-12-02T07:30:24.960Z,0.70
2018-12-02T07:31:21.282Z,0.70
2018-12-02T07:32:21.326Z,1.10
2018-12-02T07:33:21.270Z,0.70
2018-12-02T07:34:21.294Z,1.70
2018-12-02T07:35:21.238Z,0.60
2018-12-02T07:36:21.245Z,0.60
2018-12-02T07:37:21.225Z,0.60
2018-12-02T07:38:21.242Z,0.50
2018-12-02T07:39:21.524Z,0.50
2018-12-02T07:40:21.448Z,0.70
2018-12-02T07:41:21.173Z,0.60
2018-12-02T07:42:21.166Z,0.90
2018-12-02T07:43:21.174Z,0.70
2018-12-02T07:44:21.143Z,0.60
2018-12-02T07:45:21.196Z,0.60
2018-12-02T07:46:21.132Z,0.70
2018-12-02T07:47:21.204Z,1.10
2018-12-02T07:48:21.106Z,1.00
2018-12-02T07:49:21.088Z,0.70
2018-12-02T07:50:21.075Z,0.60
2018-12-02T07:51:21.096Z,0.70
2018-12-02T07:52:21.099Z,1.40
2018-12-02T07:53:21.058Z,0.70
2018-12-02T07:54:21.042Z,1.30
2018-12-02T07:55:21.016Z,0.50
2018-12-02T07:56:21.005Z,1.70
2018-12-02T07:57:21.061Z,0.60
2018-12-02T07:58:20.991Z,2.10
2018-12-02T07:59:20.983Z,0.60
2018-12-02T08:00:20.979Z,0.50
2018-12-02T08:01:21.030Z,1.40
2018-12-02T08:02:20.950Z,1.00
2018-12-02T08:03:20.957Z,0.70
2018-12-02T08:04:20.921Z,0.70
2018-12-02T08:05:20.915Z,1.20
2018-12-02T08:07:31.942Z,2.90
2018-12-02T08:08:30.767Z,1.70
2018-12-02T08:09:30.743Z,1.60
2018-12-02T08:10:30.625Z,1.20
2018-12-02T08:11:30.612Z,1.10
2018-12-02T08:12:30.586Z,0.70
2018-12-02T08:13:30.833Z,0.90
2018-12-02T08:14:30.590Z,1.10
2018-12-02T08:15:30.617Z,1.40
2018-12-02T08:16:30.579Z,1.30
2018-12-02T08:17:30.527Z,2.60
2018-12-02T08:18:30.524Z,1.40
2018-12-02T08:19:30.497Z,3.40
2018-12-02T08:20:30.476Z,3.20
2018-12-02T08:21:30.484Z,1.60
2018-12-02T08:22:30.462Z,1.50
2018-12-02T08:23:30.818Z,2.10
2018-12-02T08:24:30.501Z,2.00
2018-12-02T08:25:30.425Z,13.40
2018-12-02T08:26:30.408Z,6.80
2018-12-02T08:27:30.420Z,3.40
2018-12-02T08:28:30.407Z,14.20
2018-12-02T08:29:30.378Z,3.00
2018-12-02T08:30:30.380Z,1.50
2018-12-02T08:31:30.360Z,1.90
2018-12-02T08:32:30.366Z,1.50
2018-12-02T08:33:30.331Z,1.10
2018-12-02T08:34:30.323Z,1.70
2018-12-02T08:35:30.331Z,1.40
2018-12-02T08:36:30.298Z,0.90
2018-12-02T08:37:30.291Z,3.40
2018-12-02T08:38:30.297Z,0.90
2018-12-02T08:39:30.267Z,1.10
2018-12-02T08:40:30.258Z,2.50
2018-12-02T08:41:30.266Z,1.80
2018-12-02T08:42:30.314Z,0.80
2018-12-02T08:43:30.426Z,0.70
2018-12-02T08:44:30.220Z,1.40
2018-12-02T08:45:30.206Z,1.50
2018-12-02T08:46:30.216Z,2.90
2018-12-02T08:47:30.208Z,2.00
2018-12-02T08:48:30.195Z,0.90
2018-12-02T08:49:30.173Z,1.00
2018-12-02T08:50:30.150Z,1.70
2018-12-02T08:51:30.156Z,1.40
2018-12-02T08:52:30.187Z,1.90
2018-12-02T08:53:30.172Z,1.00
2018-12-02T08:54:30.109Z,1.40
2018-12-02T08:55:30.143Z,2.10
2018-12-02T08:56:30.099Z,1.40
2018-12-02T08:57:30.078Z,4.20
2018-12-02T08:58:30.065Z,2.80
2018-12-02T08:59:30.066Z,1.70
2018-12-02T09:00:30.042Z,1.10
2018-12-02T09:01:30.066Z,0.80
2018-12-02T09:02:30.023Z,1.00
2018-12-02T09:03:30.018Z,1.60
2018-12-02T09:04:29.996Z,0.70
2018-12-02T09:05:30.910Z,2.30
2018-12-02T09:06:29.985Z,1.10
2018-12-02T09:07:30.061Z,3.70
2018-12-02T09:08:29.975Z,1.60
2018-12-02T09:09:29.936Z,3.00
2018-12-02T09:10:29.929Z,2.50
2018-12-02T09:11:29.921Z,1.20
2018-12-02T09:12:29.914Z,2.00
2018-12-02T09:13:29.960Z,2.20
2018-12-02T09:14:29.928Z,4.90
2018-12-02T09:15:29.877Z,2.30
2018-12-02T09:16:29.858Z,1.80
2018-12-02T09:17:29.882Z,1.10
2018-12-02T09:18:29.845Z,0.70
2018-12-02T09:19:29.843Z,1.20
2018-12-02T09:20:29.881Z,2.20
2018-12-02T09:21:29.928Z,1.60
2018-12-02T09:22:29.799Z,1.80
2018-12-02T09:23:29.794Z,3.80
2018-12-02T09:24:29.820Z,2.50
2018-12-02T09:25:29.766Z,1.40
2018-12-02T09:26:29.770Z,1.10
2018-12-02T09:27:29.808Z,0.90
2018-12-02T09:28:29.730Z,1.50
2018-12-02T09:29:29.723Z,0.80
2018-12-02T09:30:29.814Z,1.40
2018-12-02T09:31:29.985Z,1.70
2018-12-02T09:32:29.698Z,0.70
2018-12-02T09:33:29.675Z,1.40
2018-12-02T09:34:29.766Z,1.00
2018-12-02T09:35:38.553Z,1.00
2018-12-02T09:36:29.918Z,2.80
2018-12-02T09:37:29.803Z,1.20
2018-12-02T09:38:29.673Z,2.90
2018-12-02T09:39:29.626Z,2.40
2018-12-02T09:40:29.656Z,1.50
2018-12-02T09:41:29.621Z,1.50
2018-12-02T09:42:29.584Z,1.60
2018-12-02T09:43:29.581Z,1.70
2018-12-02T09:44:30.751Z,3.60
2018-12-02T09:45:29.899Z,1.40
2018-12-02T09:46:29.755Z,0.90
2018-12-02T09:47:29.528Z,1.00
2018-12-02T09:48:29.718Z,1.00
2018-12-02T09:49:29.518Z,1.30
2018-12-02T09:50:29.538Z,0.80
2018-12-02T09:51:29.534Z,0.80
2018-12-02T09:52:29.469Z,2.20
2018-12-02T09:53:29.495Z,1.60
2018-12-02T09:54:29.443Z,1.00
2018-12-02T09:55:29.472Z,0.90
2018-12-02T09:56:29.439Z,1.60
2018-12-02T09:57:29.414Z,1.60
2018-12-02T09:58:29.542Z,3.70
2018-12-02T09:59:29.591Z,0.70
2018-12-02T10:00:34.048Z,1.20
2018-12-02T10:01:30.367Z,1.70
2018-12-02T10:02:29.370Z,1.50
2018-12-02T10:03:29.437Z,0.90
2018-12-02T10:04:29.342Z,1.60
2018-12-02T10:05:29.350Z,1.30
2018-12-02T10:06:29.351Z,1.10
2018-12-02T10:07:30.889Z,1.10
2018-12-02T10:08:29.310Z,0.90
2018-12-02T10:09:29.281Z,1.20
2018-12-02T10:10:29.272Z,1.20
2018-12-02T10:11:29.285Z,1.60
2018-12-02T10:12:29.677Z,1.10
2018-12-02T10:13:29.240Z,0.80
2018-12-02T10:14:29.227Z,1.00
2018-12-02T10:15:29.216Z,1.40
2018-12-02T10:16:29.230Z,2.50
2018-12-02T10:17:30.157Z,0.80
2018-12-02T10:18:29.176Z,2.50
2018-12-02T10:19:29.191Z,1.40
2018-12-02T10:20:29.156Z,1.40
2018-12-02T10:21:29.152Z,1.90
2018-12-02T10:22:29.262Z,1.10
2018-12-02T10:24:48.209Z,1.10
2018-12-02T10:25:47.746Z,1.20
2018-12-02T10:26:47.696Z,1.50
2018-12-02T10:27:47.744Z,1.70
2018-12-02T10:28:47.778Z,1.20
2018-12-02T10:29:47.647Z,2.20
2018-12-02T10:30:47.640Z,2.10
2018-12-02T10:31:47.627Z,1.30
2018-12-02T10:32:47.623Z,1.70
2018-12-02T10:33:47.635Z,1.30
2018-12-02T10:34:47.579Z,2.40
2018-12-02T10:35:47.577Z,1.50
2018-12-02T10:36:47.564Z,1.20
2018-12-02T10:37:47.715Z,1.20
2018-12-02T10:38:47.573Z,1.70
2018-12-02T10:39:47.545Z,1.70
2018-12-02T10:40:47.523Z,1.20
2018-12-02T10:41:47.836Z,1.60
2018-12-02T10:42:47.510Z,2.10
2018-12-02T10:43:47.488Z,2.60
2018-12-02T10:44:47.490Z,1.30
2018-12-02T10:45:47.475Z,2.50
2018-12-02T10:46:47.457Z,2.40
2018-12-02T10:47:47.453Z,1.00
2018-12-02T10:48:47.425Z,1.30
2018-12-02T10:49:47.425Z,1.20
2018-12-02T10:50:47.434Z,3.20
2018-12-02T10:51:47.391Z,1.40
2018-12-02T10:52:47.385Z,1.70
2018-12-02T10:53:47.462Z,1.00
2018-12-02T10:54:47.370Z,1.10
2018-12-02T10:55:47.390Z,1.00
2018-12-02T10:56:47.351Z,1.20
2018-12-02T10:57:47.326Z,1.30
2018-12-02T10:58:47.320Z,1.40
2018-12-02T10:59:47.316Z,1.70
2018-12-02T11:00:47.292Z,1.40
2018-12-02T11:01:47.365Z,3.30
2018-12-02T11:02:47.274Z,1.40
2018-12-02T11:03:47.274Z,1.20
2018-12-02T11:04:47.269Z,1.20
2018-12-02T11:05:47.245Z,2.60
2018-12-02T11:06:47.251Z,2.90
2018-12-02T11:07:47.225Z,1.50
2018-12-02T11:08:47.209Z,3.30
2018-12-02T11:09:47.215Z,1.80
2018-12-02T11:10:47.193Z,4.40
2018-12-02T11:11:47.195Z,3.40
2018-12-02T11:12:47.277Z,3.60
2018-12-02T11:13:47.158Z,3.50
2018-12-02T11:14:47.157Z,2.20
2018-12-02T11:15:47.156Z,3.30
2018-12-02T11:16:47.124Z,2.90
2018-12-02T11:17:47.103Z,2.10
2018-12-02T11:18:47.102Z,2.90
2018-12-02T11:19:47.109Z,2.40
2018-12-02T11:20:47.232Z,2.40
2018-12-02T11:21:47.075Z,2.10
2018-12-02T11:22:47.065Z,1.60
2018-12-02T11:23:48.026Z,2.70
2018-12-02T11:24:47.123Z,2.00
2018-12-02T11:25:47.052Z,3.10
2018-12-02T11:26:47.013Z,3.70
2018-12-02T11:27:47.014Z,3.10
2018-12-02T11:28:47.032Z,4.40
2018-12-02T11:29:47.029Z,3.50
2018-12-02T11:30:46.965Z,2.60
2018-12-02T11:31:46.988Z,2.60
2018-12-02T11:32:46.964Z,2.00
2018-12-02T11:33:46.964Z,1.90
2018-12-02T11:34:46.928Z,2.90
2018-12-02T11:35:46.917Z,2.30
2018-12-02T11:36:46.919Z,1.80
2018-12-02T11:37:46.954Z,2.00
2018-12-02T11:38:46.897Z,2.50
2018-12-02T11:39:46.899Z,2.80
2018-12-02T11:40:46.858Z,2.20
2018-12-02T11:41:46.879Z,2.70
2018-12-02T11:42:46.833Z,2.40
2018-12-02T11:43:46.836Z,3.00
2018-12-02T11:44:46.808Z,2.20
2018-12-02T11:45:46.831Z,2.90
2018-12-02T11:46:46.803Z,6.30
2018-12-02T11:47:46.779Z,2.60
2018-12-02T11:48:46.758Z,2.90
2018-12-02T11:49:46.771Z,2.50
2018-12-02T11:50:46.743Z,3.30
2018-12-02T11:51:46.769Z,3.10
2018-12-02T11:52:46.719Z,2.90
2018-12-02T11:53:46.710Z,4.20
2018-12-02T11:54:46.733Z,2.90
2018-12-02T11:55:46.728Z,4.50
2018-12-02T11:56:46.678Z,2.70
2018-12-02T11:57:46.662Z,4.90
2018-12-02T11:58:46.675Z,4.40
2018-12-02T11:59:46.641Z,4.30
2018-12-02T12:00:46.706Z,3.00
2018-12-02T12:01:46.659Z,3.20
2018-12-02T12:02:46.603Z,3.20
2018-12-02T12:03:46.607Z,3.80
2018-12-02T12:04:48.541Z,3.20
2018-12-02T12:05:46.572Z,3.90
2018-12-02T12:06:46.571Z,3.60
2018-12-02T12:07:46.611Z,3.40
2018-12-02T12:08:46.647Z,4.20
2018-12-02T12:09:46.528Z,3.90
2018-12-02T12:10:46.515Z,4.80
2018-12-02T12:11:46.577Z,4.00
2018-12-02T12:12:46.510Z,4.00
2018-12-02T12:13:46.487Z,4.30
2018-12-02T12:14:46.474Z,4.80
2018-12-02T12:15:46.468Z,4.60
2018-12-02T12:16:46.470Z,5.50
2018-12-02T12:17:46.442Z,3.80
2018-12-02T12:18:46.426Z,3.90
2018-12-02T12:19:46.416Z,4.20
2018-12-02T12:20:46.405Z,4.80
2018-12-02T12:21:46.418Z,3.90
2018-12-02T12:22:47.060Z,4.70
2018-12-02T12:23:46.383Z,4.80
2018-12-02T12:24:46.359Z,4.00
2018-12-02T12:25:46.350Z,4.20
2018-12-02T12:26:46.348Z,5.60
2018-12-02T12:27:46.322Z,5.90
2018-12-02T12:28:46.350Z,5.70
2018-12-02T12:29:46.302Z,5.70
2018-12-02T12:30:46.353Z,6.80
2018-12-02T12:31:46.294Z,6.20
2018-12-02T12:32:46.275Z,6.20
2018-12-02T12:33:46.302Z,8.20
2018-12-02T12:34:46.264Z,7.60
2018-12-02T12:35:46.271Z,7.00
2018-12-02T12:36:46.286Z,6.90
2018-12-02T12:37:46.232Z,6.60
2018-12-02T12:38:46.209Z,6.40
2018-12-02T12:39:46.213Z,6.40
2018-12-02T12:40:46.186Z,7.10
2018-12-02T12:41:46.171Z,6.80
2018-12-02T12:42:46.164Z,7.00
2018-12-02T12:43:47.301Z,6.50
2018-12-02T12:44:46.194Z,7.70
2018-12-02T12:45:46.134Z,7.80
2018-12-02T12:46:46.115Z,7.30
2018-12-02T12:47:46.129Z,8.20
2018-12-02T12:48:46.095Z,10.40
2018-12-02T12:49:46.078Z,8.20
2018-12-02T12:50:46.117Z,9.10
2018-12-02T12:51:46.068Z,10.00
2018-12-02T12:52:46.045Z,8.90
2018-12-02T12:53:46.054Z,8.30
2018-12-02T12:54:46.029Z,8.70
2018-12-02T12:55:50.868Z,8.60
2018-12-02T12:56:47.006Z,9.50
2018-12-02T12:57:45.999Z,10.90
2018-12-02T12:58:45.981Z,11.50
2018-12-02T12:59:45.968Z,9.90
2018-12-02T13:00:46.026Z,10.00
2018-12-02T13:01:45.952Z,10.40
2018-12-02T13:02:45.967Z,10.70
2018-12-02T13:03:45.925Z,10.60
2018-12-02T13:04:45.976Z,10.50
2018-12-02T13:05:45.935Z,10.40
2018-12-02T13:06:45.894Z,10.20
2018-12-02T13:07:45.897Z,10.60
2018-12-02T13:08:45.883Z,10.60
2018-12-02T13:09:45.954Z,10.20
2018-12-02T13:10:45.851Z,10.20
2018-12-02T13:11:45.871Z,11.70
2018-12-02T13:12:45.833Z,10.70
2018-12-02T13:13:45.825Z,11.30
2018-12-02T13:14:45.809Z,10.20
2018-12-02T13:15:45.805Z,11.10
2018-12-02T13:16:45.793Z,11.60
2018-12-02T13:17:45.895Z,12.30
2018-12-02T13:18:45.773Z,12.50
2018-12-02T13:19:45.752Z,12.30
2018-12-02T13:20:45.782Z,12.40
2018-12-02T13:21:45.834Z,12.00
2018-12-02T13:22:46.594Z,11.80
2018-12-02T13:23:45.718Z,11.60
2018-12-02T13:24:45.725Z,12.40
2018-12-02T13:25:45.691Z,12.60
2018-12-02T13:26:45.685Z,12.50
2018-12-02T13:27:45.677Z,13.60
2018-12-02T13:28:45.646Z,12.40
2018-12-02T13:29:45.640Z,13.30